Time;durP1;ratioP1;P1;durP2;ratioP2;P2;SDS_P1;SDS_P2;PMS_P1;PMS_P2;Temp;Humidity;BMP_temperature;BMP_pressure;BME280_temperature;BME280_humidity;BME280_pressure;Samples;Min_cycle;Max_cycle;Signal;HPM_P1;HPM_P2
2022/02/08 00:01:01;;;;;;;1.92;1.23;;;11.40;75.20;;;;;;5057905;28;20039;-55
2022/02/08 00:03:26;;;;;;;3.40;1.10;;;11.40;75.50;;;;;;5058106;28;20021;-55
2022/02/08 00:08:26;;;;;;;;;;;11.40;74.20;;;;;;5058529;28;20021;-54
2022/02/08 00:10:52;;;;;;;2.15;1.25;;;11.40;75.40;;;;;;5057997;28;19912;-49
2022/02/08 00:13:18;;;;;;;3.38;1.70;;;11.40;74.90;;;;;;5057827;28;20399;-55
2022/02/08 00:15:44;;;;;;;2.55;1.40;;;11.40;74.00;;;;;;5057974;28;20500;-52
2022/02/08 00:18:09;;;;;;;4.03;1.30;;;11.50;73.50;;;;;;5057891;28;20029;-52
2022/02/08 00:20:35;;;;;;;3.28;1.20;;;11.50;74.40;;;;;;5057790;28;20116;-51
2022/02/08 00:23:01;;;;;;;3.40;1.20;;;11.50;73.80;;;;;;5057742;28;20029;-54
2022/02/08 00:25:27;;;;;;;2.38;1.15;;;11.50;74.60;;;;;;5057812;28;20021;-55
2022/02/08 00:27:52;;;;;;;3.72;1.20;;;11.50;74.40;;;;;;5057629;28;20061;-54
2022/02/08 00:30:18;;;;;;;1.83;1.15;;;11.50;76.00;;;;;;5057910;28;20022;-51
2022/02/08 00:32:44;;;;;;;4.13;1.38;;;11.50;73.70;;;;;;5057272;28;20467;-55
2022/02/08 00:35:10;;;;;;;1.92;1.02;;;11.50;73.80;;;;;;5057601;28;20463;-51
2022/02/08 00:37:35;;;;;;;1.52;0.80;;;11.50;73.60;;;;;;5057526;28;20488;-53
2022/02/08 00:40:02;;;;;;;3.00;0.93;;;11.50;74.00;;;;;;5057504;28;20044;-54
2022/02/08 00:42:30;;;;;;;1.75;0.75;;;11.50;74.70;;;;;;5057995;28;20025;-50
2022/02/08 00:47:39;;;;;;;1.83;0.77;;;11.50;74.20;;;;;;5057927;28;20354;-55
2022/02/08 00:50:08;;;;;;;4.43;1.33;;;11.50;74.10;;;;;;5057162;28;20048;-53
2022/02/08 00:52:35;;;;;;;2.13;0.88;;;11.50;73.80;;;;;;5057209;28;20116;-52
2022/02/08 00:55:02;;;;;;;1.75;0.70;;;11.50;73.50;;;;;;5057369;28;20388;-54
2022/02/08 00:57:28;;;;;;;3.05;0.80;;;11.60;74.60;;;;;;5057625;28;20052;-54
2022/02/08 00:59:54;;;;;;;3.90;0.93;;;11.50;74.80;;;;;;5057545;28;20036;-55
2022/02/08 01:02:20;;;;;;;2.40;1.02;;;11.60;74.70;;;;;;5057265;28;20029;-50
2022/02/08 01:04:54;;;;;;;2.20;0.93;;;11.60;74.00;;;;;;5057248;28;20448;-52
2022/02/08 01:07:21;;;;;;;1.67;1.00;;;11.60;74.20;;;;;;5057122;28;20036;-52
2022/02/08 01:09:56;;;;;;;1.40;0.77;;;11.60;74.20;;;;;;5057207;28;20147;-53
2022/02/08 01:12:23;;;;;;;1.80;1.00;;;11.60;74.40;;;;;;5057282;28;20037;-54
2022/02/08 01:14:51;;;;;;;1.30;0.90;;;11.50;73.90;;;;;;5057378;28;20040;-54
2022/02/08 01:17:19;;;;;;;2.47;0.95;;;11.50;74.40;;;;;;5057101;28;20492;-52
2022/02/08 01:19:53;;;;;;;3.20;0.90;;;11.60;74.10;;;;;;5057176;28;20116;-49
2022/02/08 01:22:19;;;;;;;1.73;0.90;;;11.60;74.50;;;;;;5057149;28;20033;-54
2022/02/08 01:24:47;;;;;;;1.95;0.70;;;11.60;74.70;;;;;;5057568;28;20128;-52
2022/02/08 01:27:14;;;;;;;2.58;0.95;;;11.50;73.90;;;;;;5057746;28;20025;-56
2022/02/08 01:35:24;;;;;;;2.97;0.88;;;11.50;74.90;;;;;;5056852;28;20025;-50
2022/02/08 01:50:31;;;;;;;3.25;1.15;;;11.50;74.70;;;;;;5060364;28;20040;-50
2022/02/08 01:52:57;;;;;;;1.75;0.70;;;11.50;74.70;;;;;;5060437;28;20075;-51
2022/02/08 01:55:23;;;;;;;2.60;0.80;;;11.50;74.10;;;;;;5060310;28;20384;-49
2022/02/08 01:57:49;;;;;;;4.05;1.00;;;11.50;74.30;;;;;;5060303;28;20033;-53
2022/02/08 02:00:18;;;;;;;2.60;1.00;;;11.50;74.00;;;;;;5060399;28;20438;-54
2022/02/08 02:02:44;;;;;;;1.95;0.90;;;11.50;74.10;;;;;;5060329;28;20029;-53
2022/02/08 02:05:10;;;;;;;1.48;0.70;;;11.50;74.30;;;;;;5060135;28;20017;-52
2022/02/08 02:07:46;;;;;;;3.08;1.00;;;11.40;74.10;;;;;;5060102;28;20025;-52
2022/02/08 02:10:11;;;;;;;2.17;0.98;;;11.50;75.30;;;;;;5060086;28;20025;-54
2022/02/08 02:12:47;;;;;;;3.88;1.08;;;11.40;74.70;;;;;;5060125;28;20054;-51
2022/02/08 02:15:14;;;;;;;2.05;1.30;;;11.50;74.10;;;;;;5059934;28;20025;-51
2022/02/08 02:17:39;;;;;;;2.10;1.10;;;11.40;75.20;;;;;;5060111;28;20025;-52
2022/02/08 02:20:05;;;;;;;2.22;1.05;;;11.40;74.40;;;;;;5059812;28;20546;-53
2022/02/08 02:22:31;;;;;;;1.55;1.10;;;11.40;74.40;;;;;;5059787;28;20476;-50
2022/02/08 02:24:57;;;;;;;4.50;1.48;;;11.50;74.90;;;;;;5059981;28;20025;-51
2022/02/08 02:27:22;;;;;;;2.80;1.45;;;11.40;74.10;;;;;;5060146;28;20079;-53
2022/02/08 02:29:48;;;;;;;4.25;1.60;;;11.40;74.20;;;;;;5059836;28;20452;-53
2022/02/08 02:32:14;;;;;;;2.45;1.27;;;11.30;74.80;;;;;;5059813;28;20040;-49
2022/02/08 02:34:47;;;;;;;2.72;1.33;;;11.40;74.00;;;;;;5059749;28;20036;-55
2022/02/08 02:37:13;;;;;;;1.92;1.42;;;11.30;74.50;;;;;;5058318;28;20040;-54
2022/02/08 02:39:39;;;;;;;3.60;1.80;;;11.30;74.30;;;;;;5059668;28;20025;-53
2022/02/08 02:42:11;;;;;;;2.58;1.40;;;11.20;75.10;;;;;;5059580;28;20036;-54
2022/02/08 02:44:38;;;;;;;2.15;1.20;;;11.20;75.40;;;;;;5059483;28;20021;-55
2022/02/08 02:47:03;;;;;;;3.78;1.50;;;11.20;75.70;;;;;;5059277;28;20535;-49
2022/02/08 02:49:30;;;;;;;3.92;1.55;;;11.20;74.70;;;;;;5059757;28;20017;-51
2022/02/08 02:51:57;;;;;;;3.03;1.70;;;11.20;74.80;;;;;;5059230;28;20040;-52
2022/02/08 02:54:22;;;;;;;3.45;1.80;;;11.20;74.30;;;;;;5059271;28;20036;-54
2022/02/08 02:56:49;;;;;;;3.70;1.70;;;11.20;74.40;;;;;;5059019;28;20029;-53
2022/02/08 02:59:18;;;;;;;2.05;1.40;;;11.20;74.80;;;;;;5059125;28;20025;-54
2022/02/08 03:20:31;;;;;;;6.35;2.05;;;10.80;78.80;;;;;;5058453;28;20080;-53
2022/02/08 03:22:57;;;;;;;7.32;2.38;;;10.90;76.60;;;;;;5059040;28;20037;-53
2022/02/08 03:25:23;;;;;;;7.47;1.58;;;10.90;76.10;;;;;;5058827;28;20025;-49
2022/02/08 03:27:49;;;;;;;9.60;1.70;;;10.90;76.00;;;;;;5058750;28;20035;-52
2022/02/08 03:30:14;;;;;;;7.32;1.60;;;10.90;76.30;;;;;;5059000;28;20071;-55
2022/02/08 03:32:40;;;;;;;6.43;1.42;;;10.90;76.30;;;;;;5058444;28;20392;-53
2022/02/08 03:35:07;;;;;;;6.15;2.05;;;11.00;75.80;;;;;;5058662;28;20088;-51
2022/02/08 03:37:34;;;;;;;5.57;1.50;;;11.00;75.60;;;;;;5059208;28;20033;-55
2022/02/08 03:40:08;;;;;;;4.60;1.52;;;11.00;75.50;;;;;;5058416;28;20074;-54
2022/02/08 03:42:38;;;;;;;11.35;1.98;;;11.00;76.20;;;;;;5058207;28;20059;-53
2022/02/08 03:45:08;;;;;;;5.97;1.42;;;10.90;75.90;;;;;;5058726;28;20032;-53
2022/02/08 03:47:35;;;;;;;4.30;1.42;;;11.00;75.50;;;;;;5057236;28;20017;-49
2022/02/08 03:50:03;;;;;;;4.30;1.65;;;10.90;77.00;;;;;;5058500;28;20512;-53
2022/02/08 03:52:29;;;;;;;4.70;1.55;;;11.00;75.30;;;;;;5058694;28;20032;-51
2022/02/08 03:54:55;;;;;;;3.33;1.20;;;10.90;77.60;;;;;;5057888;28;20370;-49
2022/02/08 03:57:24;;;;;;;5.15;1.60;;;10.90;77.80;;;;;;5058070;28;20111;-52
2022/02/08 03:59:50;;;;;;;6.72;1.60;;;10.90;75.50;;;;;;5057807;28;20028;-55
2022/02/08 04:05:03;;;;;;;5.75;1.58;;;10.90;78.10;;;;;;5057910;28;20021;-54
2022/02/08 04:07:38;;;;;;;7.38;1.55;;;10.90;76.10;;;;;;5057498;28;20056;-52
2022/02/08 04:10:06;;;;;;;4.97;1.40;;;10.90;75.60;;;;;;5057595;28;20377;-50
2022/02/08 04:15:21;;;;;;;4.80;1.40;;;10.90;75.60;;;;;;5057767;28;20052;-52
2022/02/08 04:41:19;;;;;;;4.78;1.83;;;10.90;76.10;;;;;;5057416;28;20032;-54
2022/02/08 04:44:00;;;;;;;4.57;1.58;;;11.00;76.10;;;;;;5057744;28;20025;-55
2022/02/08 04:49:06;;;;;;;5.85;1.92;;;11.00;75.90;;;;;;5057697;28;20033;-52
2022/02/08 04:51:39;;;;;;;4.72;1.60;;;11.00;76.20;;;;;;5057205;28;20059;-55
2022/02/08 04:54:30;;;;;;;6.40;2.03;;;11.00;77.10;;;;;;5057774;28;20052;-51
2022/02/08 05:00:08;;;;;;;5.88;1.90;;;11.00;77.50;;;;;;5057156;28;20021;-51
2022/02/08 05:40:58;;;;;;;4.55;1.48;;;11.00;76.20;;;;;;5060762;28;20047;-54
2022/02/08 05:48:35;;;;;;;3.92;1.50;;;10.90;76.50;;;;;;5069430;28;20045;-55
2022/02/08 05:51:05;;;;;;;6.05;1.42;;;10.90;76.70;;;;;;5060637;28;20104;-48
2022/02/08 05:53:52;;;;;;;7.40;1.65;;;10.90;76.20;;;;;;5060407;28;20068;-54
2022/02/08 05:56:17;;;;;;;2.80;1.23;;;10.90;77.80;;;;;;5060204;28;20064;-53
2022/02/08 05:58:46;;;;;;;5.97;1.20;;;10.90;76.60;;;;;;5060291;28;20024;-55
2022/02/08 06:01:13;;;;;;;6.07;1.15;;;10.80;76.70;;;;;;5059949;28;20025;-51
2022/02/08 06:03:39;;;;;;;3.63;1.00;;;10.80;77.60;;;;;;5060369;28;20032;-53
2022/02/08 06:06:05;;;;;;;2.50;0.88;;;10.80;77.90;;;;;;5060089;28;20476;-54
2022/02/08 06:08:30;;;;;;;3.03;1.05;;;10.70;77.30;;;;;;5060330;28;20021;-53
2022/02/08 06:11:14;;;;;;;2.92;0.95;;;10.70;77.20;;;;;;5060039;28;20025;-54
2022/02/08 06:13:41;;;;;;;4.43;1.15;;;10.70;78.00;;;;;;5059833;28;20435;-51
2022/02/08 06:16:11;;;;;;;2.80;0.82;;;10.70;77.50;;;;;;5060160;28;20025;-53
2022/02/08 06:18:37;;;;;;;4.03;1.40;;;10.70;78.10;;;;;;5059974;28;20028;-49
2022/02/08 06:21:03;;;;;;;3.00;0.90;;;10.70;78.20;;;;;;5059564;28;20045;-49
2022/02/08 06:23:29;;;;;;;4.85;1.30;;;10.60;78.80;;;;;;5060061;28;20032;-51
2022/02/08 06:25:55;;;;;;;2.92;1.00;;;10.60;78.30;;;;;;5059987;28;20025;-50
2022/02/08 06:28:22;;;;;;;2.67;0.90;;;10.70;79.00;;;;;;5059917;28;20025;-50
2022/02/08 06:30:49;;;;;;;3.33;1.02;;;10.70;78.30;;;;;;5059011;28;20436;-51
2022/02/08 06:33:15;;;;;;;7.75;1.25;;;10.60;78.70;;;;;;5060170;28;20055;-51
2022/02/08 06:35:41;;;;;;;1.85;0.80;;;10.60;78.80;;;;;;5058147;28;20370;-53
2022/02/08 06:38:10;;;;;;;4.30;1.00;;;10.60;80.30;;;;;;5059744;28;20057;-52
2022/02/08 06:40:37;;;;;;;3.63;0.95;;;10.60;80.80;;;;;;5059541;28;20026;-51
2022/02/08 06:43:04;;;;;;;7.15;1.27;;;10.50;81.90;;;;;;5059540;28;20464;-52
2022/02/08 06:45:32;;;;;;;3.35;0.82;;;10.50;80.30;;;;;;5059357;28;20025;-53
2022/02/08 06:47:58;;;;;;;4.97;1.08;;;10.50;80.80;;;;;;5059361;28;20032;-49
2022/02/08 06:50:23;;;;;;;6.53;1.20;;;10.50;80.00;;;;;;5059543;28;20017;-55
2022/02/08 06:52:49;;;;;;;3.55;1.30;;;10.50;80.20;;;;;;5059422;28;20036;-53
2022/02/08 06:55:17;;;;;;;4.35;1.48;;;10.60;79.00;;;;;;5059215;28;20075;-53
2022/02/08 06:57:52;;;;;;;4.53;1.00;;;10.50;78.90;;;;;;5059293;28;20104;-54
2022/02/08 07:00:22;;;;;;;6.60;1.30;;;10.50;79.10;;;;;;5059325;28;20025;-51
2022/02/08 07:02:49;;;;;;;2.83;1.30;;;10.50;79.00;;;;;;5058894;28;20511;-51
2022/02/08 07:05:15;;;;;;;2.50;0.85;;;10.60;78.80;;;;;;5059151;28;20031;-52
2022/02/08 07:07:41;;;;;;;6.90;1.65;;;10.50;79.10;;;;;;5058978;28;20051;-53
2022/02/08 07:10:07;;;;;;;5.72;1.23;;;10.50;79.30;;;;;;5058933;28;20017;-54
2022/02/08 07:12:33;;;;;;;4.68;1.10;;;10.50;79.10;;;;;;5058767;28;20123;-52
2022/02/08 07:15:06;;;;;;;7.18;1.45;;;10.50;78.80;;;;;;5058983;28;20029;-55
2022/02/08 07:17:32;;;;;;;5.40;1.63;;;10.50;79.50;;;;;;5058813;28;20064;-51
2022/02/08 07:19:58;;;;;;;2.92;1.08;;;10.50;79.70;;;;;;5058800;28;20041;-50
2022/02/08 07:22:23;;;;;;;2.83;1.10;;;10.50;79.30;;;;;;5058622;28;20048;-51
2022/02/08 07:24:49;;;;;;;3.95;1.13;;;10.50;79.70;;;;;;5058942;28;20021;-53
2022/02/08 07:27:15;;;;;;;3.97;1.20;;;10.50;79.60;;;;;;5058576;28;20029;-50
2022/02/08 07:29:49;;;;;;;5.18;1.40;;;10.50;79.90;;;;;;5058729;28;20031;-54
2022/02/08 07:32:14;;;;;;;4.15;1.25;;;10.50;79.20;;;;;;5058560;28;20036;-52
2022/02/08 07:34:48;;;;;;;4.65;1.20;;;10.50;79.60;;;;;;5058431;28;20039;-55
2022/02/08 07:39:45;;;;;;;2.50;0.90;;;10.50;79.60;;;;;;5058652;28;20098;-49
2022/02/08 07:42:10;;;;;;;4.30;1.33;;;10.50;79.20;;;;;;5057629;28;20488;-54
2022/02/08 07:44:36;;;;;;;2.00;0.88;;;10.50;80.00;;;;;;5058181;28;20068;-49
2022/02/08 07:47:03;;;;;;;2.45;0.95;;;10.50;79.60;;;;;;5058419;28;20033;-53
2022/02/08 07:49:30;;;;;;;4.50;1.20;;;10.50;79.90;;;;;;5058176;28;20044;-53
2022/02/08 07:51:57;;;;;;;4.93;1.00;;;10.50;78.90;;;;;;5058403;28;20471;-52
2022/02/08 07:54:22;;;;;;;2.42;0.77;;;10.50;78.80;;;;;;5058119;28;20488;-51
2022/02/08 07:56:49;;;;;;;4.38;1.00;;;10.50;79.10;;;;;;5058312;28;20056;-54
2022/02/08 07:59:15;;;;;;;3.17;1.10;;;10.50;79.00;;;;;;5058030;28;20021;-52
2022/02/08 08:01:41;;;;;;;5.20;1.20;;;10.50;78.40;;;;;;5057743;28;20025;-55
2022/02/08 08:04:06;;;;;;;2.78;1.00;;;10.50;79.10;;;;;;5058129;28;20017;-51
2022/02/08 08:06:32;;;;;;;4.47;1.00;;;10.60;79.20;;;;;;5057946;28;20083;-51
2022/02/08 08:08:58;;;;;;;3.75;1.00;;;10.60;79.40;;;;;;5057921;28;20043;-49
2022/02/08 08:11:24;;;;;;;1.55;0.95;;;10.60;79.40;;;;;;5058274;28;20029;-51
2022/02/08 08:21:26;;;;;;;4.20;0.90;;;10.50;79.50;;;;;;5057556;28;20381;-54
2022/02/08 08:23:52;;;;;;;0.93;0.57;;;10.50;80.90;;;;;;5057642;28;20389;-51
2022/02/08 08:26:18;;;;;;;4.13;1.20;;;10.50;79.70;;;;;;5057832;28;20495;-50
2022/02/08 08:28:44;;;;;;;2.70;0.90;;;10.60;79.40;;;;;;5057596;28;20021;-54
2022/02/08 08:31:10;;;;;;;2.85;1.15;;;10.60;80.60;;;;;;5057655;28;20424;-54
2022/02/08 08:33:36;;;;;;;3.08;1.42;;;10.60;79.50;;;;;;5057762;28;20021;-55
2022/02/08 08:36:02;;;;;;;2.20;1.08;;;10.60;80.40;;;;;;5056876;28;20017;-54
2022/02/08 08:38:31;;;;;;;4.35;1.30;;;10.60;79.50;;;;;;5057317;28;20036;-54
2022/02/08 08:53:43;;;;;;;3.17;1.25;;;10.80;79.40;;;;;;5057190;28;20025;-54
2022/02/08 08:56:10;;;;;;;5.50;1.55;;;10.80;79.80;;;;;;5060966;28;20052;-51
2022/02/08 08:58:38;;;;;;;5.22;1.23;;;10.90;80.40;;;;;;5060935;28;20073;-53
2022/02/08 09:01:04;;;;;;;3.40;1.60;;;10.90;79.50;;;;;;5060658;28;20159;-55
2022/02/08 09:03:30;;;;;;;6.45;1.77;;;11.00;80.60;;;;;;5060836;28;20017;-54
2022/02/08 09:05:56;;;;;;;5.28;1.60;;;11.00;79.90;;;;;;5060775;28;20024;-55
2022/02/08 09:08:28;;;;;;;3.17;1.45;;;11.10;79.50;;;;;;5060966;28;20031;-54
2022/02/08 09:11:02;;;;;;;2.83;1.48;;;11.20;80.00;;;;;;5060480;28;20392;-52
2022/02/08 09:13:35;;;;;;;2.75;1.20;;;11.20;80.00;;;;;;5060453;28;20033;-55
2022/02/08 09:16:09;;;;;;;3.20;1.48;;;11.20;79.60;;;;;;5060727;28;20037;-56
2022/02/08 09:19:01;;;;;;;3.35;1.50;;;11.20;79.70;;;;;;5060435;28;20025;-54
2022/02/08 09:27:46;;;;;;;3.08;1.92;;;11.20;79.80;;;;;;5061616;28;20067;-50
2022/02/08 09:30:10;;;;;;;4.97;1.90;;;11.10;79.80;;;;;;5060078;28;20033;-53
2022/02/08 09:35:06;;;;;;;4.07;2.10;;;11.00;79.10;;;;;;5060052;28;20032;-53
2022/02/08 09:37:33;;;;;;;5.45;1.83;;;11.00;80.10;;;;;;5060396;28;20036;-53
2022/02/08 09:40:00;;;;;;;6.13;2.13;;;11.00;80.10;;;;;;5060232;28;20025;-53
2022/02/08 09:42:26;;;;;;;5.60;2.20;;;11.00;81.50;;;;;;5060244;28;20044;-53
2022/02/08 09:44:54;;;;;;;6.20;2.50;;;11.10;80.40;;;;;;5060123;28;20025;-54
2022/02/08 09:47:30;;;;;;;4.15;1.95;;;11.10;80.90;;;;;;5059944;28;20075;-56
2022/02/08 09:50:03;;;;;;;4.57;2.30;;;11.20;80.60;;;;;;5059802;28;20028;-56
2022/02/08 09:52:29;;;;;;;4.30;1.98;;;11.20;80.40;;;;;;5059691;28;20021;-53
2022/02/08 09:54:55;;;;;;;5.68;2.17;;;11.30;79.60;;;;;;5059802;28;20029;-54
2022/02/08 09:57:21;;;;;;;5.38;2.03;;;11.30;80.00;;;;;;5060250;28;20025;-54
2022/02/08 09:59:47;;;;;;;3.90;1.65;;;11.40;79.70;;;;;;5060689;28;20017;-52
2022/02/08 10:02:18;;;;;;;2.22;1.25;;;11.40;79.40;;;;;;5060342;28;20083;-52
2022/02/08 10:04:44;;;;;;;3.72;1.55;;;11.50;79.20;;;;;;5058932;28;20024;-54
2022/02/08 10:07:14;;;;;;;3.83;1.48;;;11.40;78.80;;;;;;5057119;28;20104;-52
2022/02/08 10:09:40;;;;;;;5.07;1.77;;;11.40;79.10;;;;;;5058451;28;20029;-52
2022/02/08 10:12:08;;;;;;;3.63;1.52;;;11.40;79.40;;;;;;5059565;28;20036;-49
2022/02/08 10:22:30;;;;;;;2.90;0.90;;;11.50;78.60;;;;;;5059893;28;20041;-55
2022/02/08 10:25:01;;;;;;;1.50;0.77;;;11.50;78.20;;;;;;5059862;28;20028;-50
2022/02/08 10:38:00;;;;;;;1.20;0.55;;;11.40;78.00;;;;;;5059880;28;20031;-54
2022/02/08 10:40:26;;;;;;;1.00;0.60;;;11.40;78.00;;;;;;5059464;28;20021;-51
2022/02/08 10:42:59;;;;;;;1.85;0.60;;;11.40;78.00;;;;;;5059500;28;20396;-55
2022/02/08 10:45:33;;;;;;;2.00;0.60;;;11.30;78.10;;;;;;5059664;28;20021;-52
2022/02/08 10:48:07;;;;;;;1.05;0.60;;;11.20;77.80;;;;;;5059631;28;20034;-54
2022/02/08 10:50:36;;;;;;;2.03;0.57;;;11.20;77.90;;;;;;5059490;28;20103;-53
2022/02/08 10:53:04;;;;;;;3.53;0.85;;;11.10;78.20;;;;;;5059354;28;20059;-55
2022/02/08 10:58:12;;;;;;;0.77;0.70;;;11.10;79.80;;;;;;5059192;28;20029;-51
2022/02/08 11:00:48;;;;;;;1.40;0.63;;;11.10;79.70;;;;;;5059233;28;20029;-50
2022/02/08 11:03:21;;;;;;;1.85;0.40;;;11.10;80.40;;;;;;5059325;28;20036;-53
2022/02/08 11:06:03;;;;;;;1.95;0.80;;;11.10;80.50;;;;;;5058892;28;20433;-52
2022/02/08 11:08:53;;;;;;;1.38;0.70;;;11.00;80.90;;;;;;5059057;28;20033;-54
2022/02/08 11:14:08;;;;;;;1.15;0.30;;;11.00;81.20;;;;;;5058897;28;20021;-50
2022/02/08 11:16:53;;;;;;;2.45;0.77;;;10.90;80.60;;;;;;5059014;28;20025;-53
2022/02/08 11:19:28;;;;;;;2.28;0.30;;;10.90;80.60;;;;;;5058985;28;20021;-54
2022/02/08 11:22:06;;;;;;;0.20;0.20;;;11.00;81.40;;;;;;5058329;28;20409;-55
2022/02/08 11:27:12;;;;;;;0.65;0.43;;;11.40;80.60;;;;;;5058605;28;20028;-53
2022/02/08 11:30:02;;;;;;;0.30;0.13;;;11.90;79.90;;;;;;5058614;28;20033;-55
2022/02/08 11:44:08;;;;;;;0.57;0.32;;;12.00;77.30;;;;;;5058166;28;20064;-54
2022/02/08 11:46:53;;;;;;;0.60;0.30;;;11.80;76.90;;;;;;5058001;28;20159;-54
2022/02/08 11:49:36;;;;;;;0.20;0.13;;;11.60;77.40;;;;;;5057781;28;20029;-53
2022/02/08 12:07:26;;;;;;;0.57;0.30;;;11.40;76.40;;;;;;5058164;28;20108;-54
2022/02/08 12:59:56;;;;;;;0.82;0.40;;;15.10;68.30;;;;;;5057196;28;20044;-56
2022/02/08 13:02:45;;;;;;;0.93;0.35;;;15.30;68.20;;;;;;5056622;28;20033;-54
2022/02/08 13:24:40;;;;;;;1.10;0.40;;;13.90;68.50;;;;;;5056985;28;20056;-57
2022/02/08 14:06:33;;;;;;;0.55;0.20;;;11.90;72.70;;;;;;5059035;28;20036;-55
2022/02/08 14:09:13;;;;;;;1.50;0.40;;;11.90;72.50;;;;;;5059352;28;20029;-55
2022/02/08 14:11:59;;;;;;;0.73;0.30;;;11.80;73.00;;;;;;5059603;28;20055;-56
2022/02/08 14:14:42;;;;;;;0.20;0.17;;;11.90;73.20;;;;;;5060124;28;20081;-56
2022/02/08 14:19:47;;;;;;;0.60;0.28;;;12.00;73.30;;;;;;5059812;28;20025;-55
2022/02/08 14:30:14;;;;;;;1.00;0.40;;;12.80;71.20;;;;;;5060094;28;20036;-54
2022/02/08 14:32:49;;;;;;;0.60;0.20;;;12.80;71.50;;;;;;5059528;28;20033;-57
2022/02/08 14:49:23;;;;;;;0.40;0.20;;;12.30;72.50;;;;;;5059278;28;20078;-56
2022/02/08 15:08:14;;;;;;;;;;;12.10;73.60;;;;;;5059451;28;20021;-52
2022/02/08 15:10:48;;;;;;;0.60;0.30;;;12.40;73.70;;;;;;5058767;28;19992;-56
2022/02/08 15:13:16;;;;;;;0.20;0.20;;;12.60;72.30;;;;;;5058983;28;20029;-55
2022/02/08 15:18:14;;;;;;;0.15;0.15;;;12.90;72.10;;;;;;5058681;28;20104;-54
2022/02/08 15:20:40;;;;;;;0.20;0.20;;;13.10;71.30;;;;;;5058719;28;20094;-56
2022/02/08 15:23:10;;;;;;;0.28;0.10;;;13.00;70.90;;;;;;5058864;28;20044;-55
2022/02/08 15:25:36;;;;;;;0.20;0.20;;;12.90;70.30;;;;;;5058494;28;20025;-56
2022/02/08 15:28:04;;;;;;;0.10;0.10;;;12.80;70.60;;;;;;5058635;28;20052;-55
2022/02/08 15:30:32;;;;;;;0.30;0.20;;;12.70;70.30;;;;;;5058681;28;20025;-55
2022/02/08 15:32:58;;;;;;;0.50;0.20;;;12.70;71.20;;;;;;5058579;28;20025;-53
2022/02/08 15:35:25;;;;;;;1.88;0.17;;;12.60;71.20;;;;;;5058472;28;20400;-56
2022/02/08 15:37:51;;;;;;;3.00;0.40;;;12.50;71.30;;;;;;5058910;28;20021;-55
2022/02/08 15:40:20;;;;;;;1.08;0.50;;;12.50;71.30;;;;;;5058605;28;20025;-56
2022/02/08 15:42:49;;;;;;;0.88;0.30;;;12.40;71.50;;;;;;5058133;28;20397;-56
2022/02/08 15:47:44;;;;;;;0.43;0.20;;;12.20;71.90;;;;;;5058509;28;20445;-56
2022/02/08 15:50:17;;;;;;;0.20;0.20;;;12.20;71.90;;;;;;5058412;28;20090;-57
2022/02/08 15:58:07;;;;;;;0.17;0.10;;;11.90;72.70;;;;;;5067258;28;20156;-56
2022/02/08 16:06:54;;;;;;;0.45;0.20;;;12.00;73.30;;;;;;5057840;28;20574;-56
2022/02/08 16:08:53;;;;;;;0.20;0.20;;;12.00;73.70;;;;;;5057794;28;20045;-56
2022/02/08 16:19:21;;;;;;;0.68;0.30;;;11.90;73.70;;;;;;5057951;28;20496;-55
2022/02/08 16:49:31;;;;;;;0.63;0.20;;;10.60;76.60;;;;;;5036872;28;20033;-57
2022/02/08 16:54:52;;;;;;;0.43;0.22;;;10.50;76.50;;;;;;5037320;28;20030;-56
2022/02/08 16:57:21;;;;;;;0.40;0.40;;;10.50;75.70;;;;;;5037004;28;20034;-56
2022/02/08 16:59:47;;;;;;;0.95;0.28;;;10.50;75.40;;;;;;5036915;28;20097;-56
2022/02/08 17:02:20;;;;;;;0.88;0.30;;;10.40;76.10;;;;;;5037219;28;20040;-56
2022/02/08 17:04:46;;;;;;;0.93;0.40;;;10.40;77.60;;;;;;5036961;28;20026;-56
2022/02/08 17:07:12;;;;;;;2.85;0.73;;;10.40;77.80;;;;;;5037211;28;20027;-55
2022/02/08 17:12:18;;;;;;;0.40;0.40;;;10.40;77.00;;;;;;5037078;28;20044;-56
2022/02/08 17:15:35;;;;;;;0.30;0.20;;;10.40;77.10;;;;;;5037501;28;20040;-56
2022/02/08 17:47:37;;;;;;;1.15;0.50;;;10.20;77.10;;;;;;5040133;28;20028;-54
2022/02/08 17:50:04;;;;;;;1.27;0.60;;;10.20;77.10;;;;;;5040012;28;20151;-55
2022/02/08 17:52:29;;;;;;;0.75;0.45;;;10.20;77.40;;;;;;5040182;28;20025;-56
2022/02/08 17:54:55;;;;;;;2.28;0.50;;;10.10;77.80;;;;;;5040094;28;20040;-56
2022/02/08 17:57:21;;;;;;;2.65;0.50;;;10.20;76.40;;;;;;5039960;28;20033;-56
2022/02/08 17:59:47;;;;;;;1.52;0.60;;;10.10;76.70;;;;;;5040228;28;20539;-55
2022/02/08 18:02:13;;;;;;;1.35;0.70;;;10.10;77.00;;;;;;5039824;28;20060;-55
2022/02/08 18:04:39;;;;;;;1.23;0.90;;;10.20;77.40;;;;;;5040257;28;20425;-56
2022/02/08 18:07:05;;;;;;;1.00;0.88;;;10.20;76.50;;;;;;5040004;28;20017;-54
2022/02/08 18:09:31;;;;;;;1.67;1.00;;;10.20;76.80;;;;;;5040016;28;20053;-53
2022/02/08 18:12:00;;;;;;;0.85;0.80;;;10.20;76.90;;;;;;5039762;28;20018;-54
2022/02/08 18:14:27;;;;;;;1.20;1.05;;;10.30;77.20;;;;;;5039718;28;20052;-56
2022/02/08 18:17:09;;;;;;;1.30;1.05;;;10.30;77.70;;;;;;5039922;28;20083;-55
2022/02/08 18:19:39;;;;;;;1.00;0.80;;;10.30;76.70;;;;;;5039445;28;20061;-56
2022/02/08 18:22:22;;;;;;;3.03;1.08;;;10.40;77.80;;;;;;5039363;28;20045;-53
2022/02/08 19:14:03;;;;;;;2.63;1.80;;;10.30;76.80;;;;;;5038577;28;20108;-55
2022/02/08 19:23:45;;;;;;;2.63;1.80;;;10.30;75.90;;;;;;5038269;28;20499;-56
2022/02/08 19:26:12;;;;;;;4.07;2.03;;;10.20;75.80;;;;;;5038224;28;20021;-56
2022/02/08 19:28:38;;;;;;;3.38;2.30;;;10.20;76.00;;;;;;5038426;28;20028;-53
2022/02/08 19:31:04;;;;;;;2.90;2.30;;;10.20;75.90;;;;;;5038192;28;20450;-55
2022/02/08 19:33:32;;;;;;;5.32;2.88;;;10.20;75.90;;;;;;5038244;28;20034;-54
2022/02/08 19:35:59;;;;;;;5.57;3.25;;;10.20;76.90;;;;;;5038002;28;20025;-53
2022/02/08 19:38:27;;;;;;;5.28;2.97;;;10.20;76.30;;;;;;5035861;28;20057;-53
2022/02/08 19:40:54;;;;;;;4.38;3.08;;;10.20;76.30;;;;;;5038113;28;20049;-53
2022/02/08 19:43:21;;;;;;;4.75;2.80;;;10.20;76.50;;;;;;5038024;28;20055;-55
2022/02/08 19:45:50;;;;;;;4.22;2.70;;;10.30;76.50;;;;;;5038323;28;20021;-52
2022/02/08 19:48:16;;;;;;;4.78;2.83;;;10.30;76.20;;;;;;5037544;28;20021;-55
2022/02/08 19:50:46;;;;;;;5.47;2.65;;;10.30;76.70;;;;;;5038040;28;20028;-56
2022/02/08 19:53:13;;;;;;;3.58;2.50;;;10.30;76.60;;;;;;5036369;28;20059;-56
2022/02/08 19:55:53;;;;;;;3.75;2.55;;;10.30;76.70;;;;;;5037984;28;20075;-55
2022/02/08 19:58:26;;;;;;;5.63;2.63;;;10.30;76.10;;;;;;5037517;28;20082;-52
2022/02/08 20:01:04;;;;;;;4.22;2.50;;;10.20;76.50;;;;;;5037755;28;20065;-55
2022/02/08 20:03:42;;;;;;;6.47;3.20;;;10.20;76.20;;;;;;5037305;28;20056;-55
2022/02/08 20:06:08;;;;;;;3.78;2.53;;;10.10;76.40;;;;;;5037798;28;20107;-55
2022/02/08 20:08:35;;;;;;;5.00;3.03;;;10.10;76.60;;;;;;5037759;28;20473;-53
2022/02/08 20:11:02;;;;;;;5.63;3.72;;;10.10;76.40;;;;;;5036376;28;20033;-55
2022/02/08 20:13:29;;;;;;;7.75;4.00;;;10.10;76.00;;;;;;5037394;28;20477;-56
2022/02/08 20:15:57;;;;;;;5.95;3.55;;;10.10;76.30;;;;;;5037683;28;20366;-53
2022/02/08 20:18:25;;;;;;;6.88;3.70;;;10.10;76.60;;;;;;5037540;28;20374;-54
2022/02/08 20:20:51;;;;;;;6.00;3.58;;;10.10;76.40;;;;;;5035697;28;20103;-56
2022/02/08 20:23:20;;;;;;;5.72;3.40;;;10.10;76.80;;;;;;5037270;28;20029;-54
2022/02/08 20:25:49;;;;;;;7.15;4.03;;;10.10;77.10;;;;;;5037364;28;20036;-54
2022/02/08 20:28:37;;;;;;;6.00;3.95;;;10.10;76.30;;;;;;5037234;28;20163;-54
2022/02/08 20:31:03;;;;;;;5.55;4.03;;;10.10;76.80;;;;;;5036901;28;20858;-54
2022/02/08 20:33:29;;;;;;;7.47;4.40;;;10.00;76.30;;;;;;5037223;28;20370;-53
2022/02/08 20:35:56;;;;;;;6.32;4.20;;;10.10;76.20;;;;;;5036955;28;20040;-56
2022/02/08 20:38:22;;;;;;;6.78;4.55;;;10.00;76.00;;;;;;5037183;28;20030;-55
2022/02/08 20:40:51;;;;;;;8.55;5.15;;;9.90;76.30;;;;;;5037088;28;20029;-55
2022/02/08 20:43:19;;;;;;;7.10;4.53;;;9.90;76.10;;;;;;5037137;28;20034;-55
2022/02/08 20:45:45;;;;;;;8.07;4.63;;;9.90;76.20;;;;;;5035895;28;20064;-55
2022/02/08 20:48:12;;;;;;;7.53;4.78;;;9.90;76.30;;;;;;5037079;28;20022;-54
2022/02/08 20:50:40;;;;;;;7.93;5.70;;;9.90;76.80;;;;;;5037962;28;20030;-55
2022/02/08 20:55:43;;;;;;;8.38;6.25;;;10.00;77.00;;;;;;5041004;28;20021;-55
2022/02/08 20:58:21;;;;;;;8.97;6.00;;;9.90;77.00;;;;;;5041298;28;20075;-55
2022/02/08 21:00:49;;;;;;;9.32;6.10;;;10.00;76.50;;;;;;5041092;28;20044;-54
2022/02/08 21:06:01;;;;;;;9.38;5.88;;;9.90;76.60;;;;;;5041262;28;20029;-54
2022/02/08 21:08:30;;;;;;;9.10;5.82;;;10.00;77.00;;;;;;5040484;28;20035;-54
2022/02/08 21:10:58;;;;;;;9.30;6.38;;;9.90;77.10;;;;;;5040798;28;20027;-53
2022/02/08 21:16:11;;;;;;;9.77;6.32;;;9.90;76.20;;;;;;5040663;28;20022;-56
2022/02/08 21:18:38;;;;;;;9.07;6.05;;;9.90;76.50;;;;;;5039159;28;20037;-54
2022/02/08 21:21:06;;;;;;;10.13;6.53;;;9.90;76.70;;;;;;5040391;28;20046;-55
2022/02/08 21:23:34;;;;;;;8.40;6.22;;;9.90;76.60;;;;;;5039364;28;20473;-53